Latest Coastal Weather Observations for Cape Jaffa

IDS60701

Issued at 11:11 pm CST Thursday 18 July 2024 (issued every 10 minutes, with the page automatically refreshed every 10 minutes)

About coastal observations | Map of coastal stations | Coastal observations for SA | Marine services | Other Formats
Station Details ID: 026095 Name: THE LIMESTONE Lat: -36.97 Lon: 139.72 Height: 17.0 m
Data from the previous 72 hours. | See also: Recent months at Cape Jaffa
Date/Time
CST
Wind Sea
Height
m
Swell Vis
km
Cloud Weather Temp
°C
Press
MSL
hPa
Rain since
9am
mm
Dir  Spd
kts
Gust
kts
Height
m
Period
s
Dir
18/11:00pm N 17 21 - - - - - - - 10.4 1011.9 0.0
18/10:30pm N 19 22 - - - - - - - 10.5 1012.8 0.0
18/10:00pm N 16 20 - - - - - - - 10.9 1014.2 0.0
18/09:30pm N 15 19 - - - - - - - 10.8 1014.1 0.0
18/09:00pm N 16 21 - - - - - - - 10.9 1014.6 0.0
18/08:30pm N 15 18 - - - - - - - 11.0 1015.2 0.0
18/08:00pm N 14 16 - - - - - - - 11.1 1015.8 0.0
18/07:30pm N 14 18 - - - - - - - 11.1 1015.7 0.0
18/07:00pm NNW 12 15 - - - - - - - 11.3 1016.0 0.0
18/06:30pm NNW 13 17 - - - - - - - 11.0 1016.1 0.0
18/06:00pm NNW 13 18 - - - - - - - 11.1 1016.2 0.0
18/05:30pm NNW 12 16 - - - - - - - 11.3 1016.4 0.0
18/05:00pm NNW 12 16 - - - - - - - 11.3 1016.4 0.0
18/04:30pm N 10 11 - - - - - - - 11.1 1016.8 0.0
18/04:00pm N 9 11 - - - - - - - 11.1 1016.3 0.0
18/03:30pm N 8 11 - - - - - - - 11.4 1016.4 0.0
18/03:00pm N 7 8 - - - - - - - 11.4 1016.5 0.0
18/02:30pm N 6 7 - - - - - - - 11.6 1016.5 0.0
18/02:00pm NNW 6 7 - - - - - - - 11.8 1016.9 0.0
18/01:30pm WNW 3 5 - - - - - - - 12.7 1017.4 0.0
18/01:00pm NW 5 6 - - - - - - - 11.9 1018.2 0.0
18/12:30pm WNW 8 10 - - - - - - - 11.5 1018.8 0.0
18/12:00pm W 10 13 - - - - - - - 11.5 1018.9 0.0
18/11:30am SW 6 8 - - - - - - - 11.5 1020.0 0.0
18/11:00am WSW 9 11 - - - - - - - 11.6 1020.2 0.0
18/10:30am WSW 8 12 - - - - - - - 11.5 1020.4 0.0
18/10:00am WSW 8 11 - - - - - - - 11.0 1020.2 0.0
18/09:30am WSW 10 13 - - - - - - - 10.9 1020.0 0.0
18/09:00am WSW 6 8 - - - - - - - 10.9 1019.6 7.8
18/08:30am SW 8 12 - - - - - - - 10.6 1019.5 7.8
18/08:00am SW 8 13 - - - - - - - 10.2 1019.6 7.8
18/07:30am SW 7 9 - - - - - - - 9.6 1019.7 7.8
18/07:00am SW 9 11 - - - - - - - 10.0 1019.8 7.8
18/06:30am SW 9 17 - - - - - - - 10.2 1019.6 7.8
18/06:00am SW 9 14 - - - - - - - 10.2 1019.6 7.8
18/05:30am SW 9 13 - - - - - - - 10.1 1019.7 7.8
18/05:00am SW 8 11 - - - - - - - 9.5 1019.6 7.8
18/04:30am SW 10 14 - - - - - - - 9.6 1019.5 7.8
18/04:00am WSW 11 19 - - - - - - - 9.3 1019.7 7.8
18/03:30am SW 8 12 - - - - - - - 9.6 1019.8 7.6
18/03:00am SW 13 19 - - - - - - - 9.3 1019.8 7.4
18/02:30am SW 10 15 - - - - - - - 9.8 1019.4 7.4
18/02:00am SSW 10 12 - - - - - - - 9.1 1019.4 7.4
18/01:30am SSW 12 15 - - - - - - - 9.7 1019.1 7.4
18/01:00am SW 9 11 - - - - - - - 9.3 1019.0 7.4
18/12:30am SSW 11 14 - - - - - - - 9.9 1019.3 7.4
18/12:00am SSW 11 16 - - - - - - - 10.5 1019.6 7.4
 
Date/Time
CST
Wind Sea
Height
m
Swell Vis
km
Cloud Weather Temp
°C
Press
MSL
hPa
Rain since
9am
mm
Dir  Spd
kts
Gust
kts
Height
m
Period
s
Dir
17/11:30pm SSW 15 18 - - - - - - - 10.3 1019.9 7.4
17/11:00pm SSW 8 13 - - - - - - - 10.4 1019.9 7.4
17/10:30pm SE 3 4 - - - - - - - 9.7 1019.9 7.4
17/10:00pm SSE 4 5 - - - - - - - 9.8 1020.0 7.4
17/09:30pm SSE 5 9 - - - - - - - 9.9 1019.9 7.4
17/09:00pm S 6 7 - - - - - - Recent precip. 9.5 1019.8 7.4
17/08:30pm SSE 6 8 - - - - - - - 9.9 1019.8 7.2
17/08:00pm S 6 8 - - - - - - - 9.8 1019.4 6.6
17/07:30pm S 10 16 - - - - - - - 10.3 1019.3 6.6
17/07:00pm S 13 19 - - - - - - - 10.2 1019.2 6.6
17/06:30pm SSW 11 13 - - - - - - - 11.3 1018.7 6.0
17/06:00pm S 10 13 - - - - - - - 11.4 1018.2 6.0
17/05:30pm S 12 15 - - - - - - - 11.5 1017.8 6.0
17/05:00pm S 13 17 - - - - - - - 11.5 1017.5 6.0
17/04:30pm S 11 15 - - - - - - - 11.5 1017.3 6.0
17/04:00pm S 12 14 - - - - - - - 11.5 1017.1 6.0
17/03:30pm S 16 20 - - - - - - - 12.1 1016.8 6.0
17/03:00pm S 18 24 - - - - - - - 11.9 1016.5 6.0
17/02:30pm S 17 22 - - - - - - - 12.5 1016.1 6.0
17/02:00pm S 15 19 - - - - - - - 13.3 1016.0 6.0
17/01:30pm S 15 19 - - - - - - - 13.2 1015.9 6.0
17/01:00pm S 15 18 - - - - - - - 13.3 1016.1 6.0
17/12:30pm S 13 16 - - - - - - - 12.4 1016.5 6.0
17/12:00pm S 11 14 - - - - - - Rain 12.1 1016.9 6.0
17/11:30am SSW 10 12 - - - - - - - 11.8 1017.2 5.8
17/11:00am SSW 13 17 - - - - - - - 11.0 1017.3 5.8
17/10:30am S 15 21 - - - - - - - 11.0 1017.5 4.6
17/10:00am S 14 18 - - - - - - - 11.4 1017.4 2.4
17/09:30am S 16 20 - - - - - - - 11.4 1016.8 0.8
17/09:00am S 16 18 - - - - - - Recent precip. 11.1 1016.3 2.0
17/08:30am S 21 26 - - - - - - - 11.0 1015.6 1.8
17/08:00am SSW 18 23 - - - - - - - 11.8 1015.4 1.4
17/07:30am SSW 15 18 - - - - - - - 11.5 1015.0 1.4
17/07:00am SSW 14 17 - - - - - - - 11.5 1014.9 1.4
17/06:30am S 13 17 - - - - - - - 11.4 1014.8 1.4
17/06:00am S 11 14 - - - - - - - 10.6 1014.3 1.4
17/05:30am S 12 15 - - - - - - - 11.0 1014.1 1.4
17/05:00am SSW 13 15 - - - - - - - 11.4 1014.0 1.4
17/04:30am SW 14 19 - - - - - - - 11.4 1014.2 1.4
17/04:00am SW 16 19 - - - - - - - 11.2 1014.3 1.4
17/03:30am SW 17 21 - - - - - - - 11.2 1014.5 1.4
17/03:00am SW 20 25 - - - - - - - 11.1 1014.7 1.4
17/02:30am SSW 17 22 - - - - - - - 11.2 1014.8 1.4
17/02:00am SSW 17 22 - - - - - - - 11.0 1015.0 1.4
17/01:30am SW 16 23 - - - - - - - 10.9 1015.2 1.2
17/01:00am SW 16 20 - - - - - - - 10.7 1015.4 1.0
17/12:30am SW 14 18 - - - - - - - 10.9 1015.4 0.8
17/12:00am SW 14 19 - - - - - - - 11.1 1015.8 0.8
 
Date/Time
CST
Wind Sea
Height
m
Swell Vis
km
Cloud Weather Temp
°C
Press
MSL
hPa
Rain since
9am
mm
Dir  Spd
kts
Gust
kts
Height
m
Period
s
Dir
16/11:30pm SW 16 23 - - - - - - - 10.8 1016.0 0.8
16/11:00pm SW 16 21 - - - - - - - 10.9 1016.2 0.8
16/10:30pm SW 17 24 - - - - - - - 10.7 1016.5 0.8
16/10:00pm SW 18 22 - - - - - - - 10.9 1016.6 0.8
16/09:30pm SW 18 23 - - - - - - - 10.9 1016.6 0.8
16/09:00pm SW 19 24 - - - - - - - 11.0 1016.5 0.8
16/08:30pm SW 18 24 - - - - - - - 11.1 1016.3 0.8
16/08:00pm SSW 18 24 - - - - - - - 10.8 1016.3 0.8
16/07:30pm SSW 18 24 - - - - - - - 10.9 1016.2 0.8
16/07:00pm SSW 16 19 - - - - - - - 10.8 1016.1 0.8
16/06:30pm SSW 19 24 - - - - - - - 11.0 1015.9 0.8
16/06:00pm SSW 19 24 - - - - - - - 10.9 1015.7 0.8
16/05:30pm SSW 19 23 - - - - - - - 10.8 1015.5 0.8
16/05:00pm SSW 20 31 - - - - - - - 10.4 1015.4 0.8
16/04:57pm SSW 19 31 - - - - - - - 10.7 1015.4 0.8
16/04:30pm SSW 19 27 - - - - - - - 10.1 1015.4 0.8
16/04:00pm SSW 19 24 - - - - - - - 11.2 1015.0 0.0
16/03:30pm SSW 20 25 - - - - - - - 11.8 1014.6 0.0
16/03:00pm SSW 23 28 - - - - - - - 12.5 1014.4 0.0
16/02:30pm SSW 22 26 - - - - - - - 13.3 1014.4 0.0
16/02:00pm SW 20 25 - - - - - - - 12.7 1014.5 0.0
16/01:30pm SSW 22 28 - - - - - - - 11.9 1014.7 0.0
16/01:00pm SSW 22 28 - - - - - - - 11.7 1014.9 0.0
16/12:30pm SSW 22 29 - - - - - - - 11.5 1015.4 0.0
16/12:00pm SSW 21 27 - - - - - - - 12.4 1015.5 0.0
16/11:30am SSW 23 28 - - - - - - - 11.9 1016.0 0.0
16/11:00am SSW 20 25 - - - - - - - 11.8 1016.2 0.0
16/10:30am SSW 22 27 - - - - - - - 11.0 1016.1 0.0
16/10:00am SSW 23 29 - - - - - - - 11.4 1015.8 0.0
16/09:31am SSW 21 33 - - - - - - - 11.5 1015.5 0.0
16/09:30am SSW 20 26 - - - - - - - 11.8 1015.6 0.0
16/09:00am SSW 21 26 - - - - - - - 11.8 1015.2 1.8
16/08:30am SSW 23 29 - - - - - - - 11.4 1014.9 1.8
16/08:00am SSW 22 27 - - - - - - - 11.1 1014.7 1.8
16/07:30am SSW 21 30 - - - - - - - 11.0 1014.6 1.8
16/07:00am SSW 25 31 - - - - - - - 10.9 1014.3 1.8
16/06:30am SSW 22 28 - - - - - - - 10.9 1014.0 1.8
16/06:00am SSW 23 29 - - - - - - - 11.1 1013.8 1.8
16/05:30am SSW 25 31 - - - - - - - 11.1 1013.5 1.8
16/05:00am SSW 23 30 - - - - - - - 10.8 1013.5 1.8
16/04:30am SSW 22 31 - - - - - - - 10.9 1013.3 1.8
16/04:02am SSW 20 32 - - - - - - - 10.8 1013.5 1.8
16/04:00am SSW 20 27 - - - - - - - 10.9 1013.5 1.8
16/03:30am SSW 23 29 - - - - - - - 10.9 1013.4 1.8
16/03:00am SSW 24 31 - - - - - - - 10.7 1013.4 1.8
16/02:30am SSW 22 29 - - - - - - - 10.9 1013.4 1.8
16/02:00am SSW 24 30 - - - - - - - 10.9 1013.3 1.8
16/01:30am SSW 24 31 - - - - - - - 10.7 1013.5 1.8
16/01:00am SSW 22 28 - - - - - - - 10.8 1013.6 1.8
16/12:30am S 22 29 - - - - - - - 10.6 1013.9 1.8
16/12:00am SSW 22 26 - - - - - - - 10.7 1014.0 1.8
 
Date/Time
CST
Wind Sea
Height
m
Swell Vis
km
Cloud Weather Temp
°C
Press
MSL
hPa
Rain since
9am
mm
Dir  Spd
kts
Gust
kts
Height
m
Period
s
Dir
15/11:30pm SSW 24 31 - - - - - - - 10.6 1013.9 1.8

Other formats

Comma delimited format used in spreadsheet applications
http://www.bom.gov.au/fwo/IDS60701/IDS60701.94813.axf

JavaScript Object Notation format (JSON) in row-major order
http://www.bom.gov.au/fwo/IDS60701/IDS60701.94813.json

Data quality

Most of these data are generated automatically and are frequently updated. Quality checks on data are not normally performed. It is possible for incorrect values to appear. Refer to information at About Latest Weather Observations and please check the disclaimer before using these data.